Time;durP1;ratioP1;P1;durP2;ratioP2;P2;SDS_P1;SDS_P2;PMS_P1;PMS_P2;Temp;Humidity;BMP_temperature;BMP_pressure;BME280_temperature;BME280_humidity;BME280_pressure;Samples;Min_cycle;Max_cycle;Signal;HPM_P1;HPM_P2
2022/04/01 00:02:13;;;;;;;1999.90;999.90;;;;;;;5.72;32.25;99892.66;15493047;28;20145;-70
2022/04/01 00:09:47;;;;;;;1999.90;999.90;;;;;;;5.55;32.27;99895.38;15492279;28;20050;-71
2022/04/01 00:17:19;;;;;;;1999.90;999.90;;;;;;;5.63;32.23;99894.59;15492095;28;20117;-72
2022/04/01 00:24:53;;;;;;;1999.90;999.90;;;;;;;5.50;33.29;99899.09;15473262;28;20134;-70
2022/04/01 00:32:25;;;;;;;1999.90;999.90;;;;;;;5.42;33.92;99901.84;15477637;28;20482;-71
2022/04/01 00:40:02;;;;;;;1999.90;999.90;;;;;;;5.29;33.90;99898.00;15507744;28;20403;-70
2022/04/01 00:47:35;;;;;;;1999.90;999.90;;;;;;;5.28;35.20;99899.16;15499275;28;20510;-70
2022/04/01 00:55:28;;;;;;;1999.90;999.90;;;;;;;5.12;35.40;99909.00;15549767;28;20517;-71
2022/04/01 01:03:10;;;;;;;1999.90;999.90;;;;;;;4.72;36.02;99897.03;15533329;28;20046;-70
2022/04/01 01:10:55;;;;;;;1999.90;999.90;;;;;;;4.95;35.89;99895.06;15427016;28;20101;-71
2022/04/01 01:18:32;;;;;;;1999.90;999.90;;;;;;;4.73;36.65;99893.94;15428045;28;20051;-71
2022/04/01 01:26:11;;;;;;;1999.90;999.90;;;;;;;4.93;36.57;99887.09;15411126;28;20078;-71
2022/04/01 01:34:02;;;;;;;1999.90;999.90;;;;;;;4.53;36.83;99881.44;15428545;28;20047;-72
2022/04/01 01:41:49;;;;;;;1999.90;999.90;;;;;;;4.53;36.62;99886.97;15478463;28;20529;-71
2022/04/01 01:49:27;;;;;;;1999.90;999.90;;;;;;;4.57;36.89;99878.84;15547870;28;20162;-71
2022/04/01 01:57:08;;;;;;;1999.90;999.90;;;;;;;4.15;37.01;99882.88;15514144;28;20570;-71
2022/04/01 02:04:42;;;;;;;1999.90;999.90;;;;;;;4.29;36.68;99875.38;15548357;28;20144;-71
2022/04/01 02:12:19;;;;;;;1999.90;999.90;;;;;;;4.40;36.73;99874.03;15551607;28;20133;-72
2022/04/01 02:19:54;;;;;;;1999.90;999.90;;;;;;;4.29;36.38;99878.16;15550698;28;20054;-71
2022/04/01 02:27:35;;;;;;;1999.90;999.90;;;;;;;4.16;36.97;99878.97;15548908;28;20103;-70
2022/04/01 02:35:10;;;;;;;1999.90;999.90;;;;;;;4.03;36.75;99872.38;15548403;28;20052;-72
2022/04/01 02:42:46;;;;;;;1999.90;999.90;;;;;;;4.04;37.02;99874.81;15505099;28;20050;-70
2022/04/01 02:50:26;;;;;;;1999.90;999.90;;;;;;;3.90;37.33;99881.50;15488890;28;20062;-70
2022/04/01 02:58:05;;;;;;;1999.90;999.90;;;;;;;3.90;37.58;99885.06;15490255;28;20038;-71
2022/04/01 03:05:40;;;;;;;1999.90;999.90;;;;;;;3.81;38.24;99888.88;15502760;28;20038;-70
2022/04/01 03:13:14;;;;;;;1999.90;999.90;;;;;;;3.68;37.92;99885.81;15503661;28;20050;-70
2022/04/01 03:21:08;;;;;;;1999.90;999.90;;;;;;;3.75;37.44;99893.66;15507094;28;20049;-71
2022/04/01 03:28:41;;;;;;;1999.90;999.90;;;;;;;3.68;37.98;99907.06;15476080;28;20057;-70
2022/04/01 03:36:14;;;;;;;1999.90;999.90;;;;;;;3.53;38.38;99899.91;15494396;28;20072;-71
2022/04/01 03:43:52;;;;;;;1999.90;999.90;;;;;;;3.60;39.04;99905.84;15495180;23;20104;-60
2022/04/01 03:51:26;;;;;;;1999.90;999.90;;;;;;;3.45;38.73;99900.63;15460471;28;20046;-59
2022/04/01 03:59:02;;;;;;;1999.90;999.90;;;;;;;3.59;38.64;99901.44;15485823;28;20038;-59
2022/04/01 04:06:53;;;;;;;1999.90;999.90;;;;;;;3.41;39.03;99896.84;15478977;28;20046;-58
2022/04/01 04:14:28;;;;;;;1999.90;999.90;;;;;;;3.29;39.52;99896.53;15421881;28;20049;-59
2022/04/01 04:22:10;;;;;;;1999.90;999.90;;;;;;;3.22;39.78;99904.34;15421765;28;20050;-60
2022/04/01 04:29:48;;;;;;;1999.90;999.90;;;;;;;3.17;39.72;99911.63;15405051;28;20046;-59
2022/04/01 04:37:33;;;;;;;1999.90;999.90;;;;;;;2.99;39.87;99919.94;15420405;28;20054;-58
2022/04/01 04:45:13;;;;;;;1999.90;999.90;;;;;;;3.18;39.61;99928.97;15456342;28;20045;-60
2022/04/01 04:52:53;;;;;;;1999.90;999.90;;;;;;;3.11;39.97;99925.78;15463976;28;20069;-60
2022/04/01 05:00:26;;;;;;;1999.90;999.90;;;;;;;2.95;40.54;99924.44;15464745;28;20047;-57
2022/04/01 05:08:46;;;;;;;1999.90;999.90;;;;;;;3.01;39.85;99921.25;15473174;28;20414;-59
2022/04/01 05:16:35;;;;;;;1999.90;999.90;;;;;;;3.09;40.16;99936.28;15481894;28;20069;-59
2022/04/01 05:24:14;;;;;;;1999.90;999.90;;;;;;;3.16;40.23;99950.50;15494387;28;20038;-59
2022/04/01 05:31:55;;;;;;;1999.90;999.90;;;;;;;3.26;40.22;99950.34;15458646;28;20046;-58
2022/04/01 05:39:28;;;;;;;1999.90;999.90;;;;;;;3.06;40.67;99962.53;15465151;28;20510;-57
2022/04/01 05:47:10;;;;;;;1999.90;999.90;;;;;;;3.11;40.36;99976.22;15403148;28;20101;-60
2022/04/01 05:54:44;;;;;;;1999.90;999.90;;;;;;;3.07;40.53;99980.72;15472097;28;20133;-60
2022/04/01 06:02:34;;;;;;;1999.90;999.90;;;;;;;3.42;40.57;99993.06;15476567;28;20046;-59
2022/04/01 06:10:09;;;;;;;1999.90;999.90;;;;;;;3.06;41.14;99989.28;15453730;28;20046;-60
2022/04/01 06:18:33;;;;;;;1999.90;999.90;;;;;;;3.27;40.62;100006.31;15433735;28;20050;-59
2022/04/01 06:26:11;;;;;;;1999.90;999.90;;;;;;;3.57;41.06;100005.75;15400874;28;20050;-61
2022/04/01 06:33:54;;;;;;;1999.90;999.90;;;;;;;3.63;41.02;100012.81;15440019;28;20134;-58
2022/04/01 06:41:48;;;;;;;1999.90;999.90;;;;;;;3.03;41.44;100014.69;15455443;28;20045;-61
2022/04/01 06:49:57;;;;;;;1999.90;999.90;;;;;;;3.58;42.09;100020.38;15495963;28;20470;-60
2022/04/01 06:57:48;;;;;;;1999.90;999.90;;;;;;;3.57;40.97;100011.28;15491770;28;20070;-62
2022/04/01 07:05:34;;;;;;;1999.90;999.90;;;;;;;3.55;41.40;100015.47;15466172;28;20109;-62
2022/04/01 07:13:08;;;;;;;1999.90;999.90;;;;;;;3.88;40.83;100010.72;15457625;28;20181;-59
2022/04/01 07:20:42;;;;;;;1999.90;999.90;;;;;;;4.44;39.81;100018.66;15483010;28;20631;-59
2022/04/01 07:28:14;;;;;;;1999.90;999.90;;;;;;;4.26;40.33;100033.41;15442784;28;20050;-59
2022/04/01 07:35:49;;;;;;;1999.90;999.90;;;;;;;4.56;39.38;100030.00;15443315;28;20046;-59
2022/04/01 07:43:21;;;;;;;1999.90;999.90;;;;;;;5.10;39.11;100027.38;15491055;28;20066;-59
2022/04/01 07:50:54;;;;;;;1999.90;999.90;;;;;;;5.18;39.14;100038.53;15501968;28;20109;-59
2022/04/01 07:58:26;;;;;;;1999.90;999.90;;;;;;;5.46;39.12;100044.75;15484026;28;20631;-65
2022/04/01 08:06:00;;;;;;;1999.90;999.90;;;;;;;5.72;37.71;100050.44;15500790;28;20046;-59
2022/04/01 08:13:32;;;;;;;1999.90;999.90;;;;;;;6.10;37.52;100065.84;15481988;28;20514;-60
2022/04/01 08:21:06;;;;;;;1999.90;999.90;;;;;;;6.01;37.27;100076.88;15439712;28;20066;-59
2022/04/01 08:28:39;;;;;;;1999.90;999.90;;;;;;;5.66;37.51;100079.41;15439547;28;20161;-59
2022/04/01 08:36:14;;;;;;;1999.90;999.90;;;;;;;6.00;36.61;100078.81;15446905;28;20656;-60
2022/04/01 08:43:48;;;;;;;1999.90;999.90;;;;;;;6.27;35.46;100075.03;15499415;28;20046;-59
2022/04/01 08:51:23;;;;;;;1999.90;999.90;;;;;;;6.30;33.41;100090.22;15461888;28;20132;-60
2022/04/01 08:58:55;;;;;;;1999.90;999.90;;;;;;;6.75;32.97;100093.59;15472115;28;20039;-59
2022/04/01 09:06:30;;;;;;;1999.90;999.90;;;;;;;7.43;30.85;100086.50;15458977;28;20078;-61
2022/04/01 09:14:03;;;;;;;1999.90;999.90;;;;;;;7.09;30.43;100092.06;15479997;28;20178;-61
2022/04/01 09:21:39;;;;;;;1999.90;999.90;;;;;;;7.50;30.22;100099.88;15491590;28;20092;-59
2022/04/01 09:29:14;;;;;;;1999.90;999.90;;;;;;;7.21;30.38;100095.00;15419660;28;20240;-60
2022/04/01 09:36:50;;;;;;;1999.90;999.90;;;;;;;7.82;29.72;100106.91;15435582;28;20130;-60
2022/04/01 09:44:25;;;;;;;1999.90;999.90;;;;;;;7.77;29.43;100110.63;15417336;28;20047;-60
2022/04/01 09:52:00;;;;;;;1999.90;999.90;;;;;;;8.27;28.54;100089.75;15417767;28;20439;-59
2022/04/01 09:59:36;;;;;;;1999.90;999.90;;;;;;;8.35;28.01;100100.88;15453591;28;20042;-60
2022/04/01 10:07:11;;;;;;;1999.90;999.90;;;;;;;9.07;27.22;100106.56;15460857;28;20060;-60
2022/04/01 10:14:45;;;;;;;1999.90;999.90;;;;;;;8.60;26.40;100098.31;15494169;28;20133;-60
2022/04/01 10:22:18;;;;;;;1999.90;999.90;;;;;;;8.94;26.28;100098.13;15493752;28;20042;-57
2022/04/01 10:29:56;;;;;;;1999.90;999.90;;;;;;;9.51;25.90;100100.31;15494673;28;20062;-60
2022/04/01 10:37:32;;;;;;;1999.90;999.90;;;;;;;10.50;25.86;100115.38;15504381;28;20448;-60
2022/04/01 10:45:08;;;;;;;1999.90;999.90;;;;;;;10.11;25.50;100117.63;15508680;28;20399;-61
2022/04/01 10:52:42;;;;;;;1999.90;999.90;;;;;;;10.07;25.80;100111.09;15504462;28;20050;-59
2022/04/01 11:00:17;;;;;;;1999.90;999.90;;;;;;;10.83;25.38;100113.31;15464040;28;20531;-61
2022/04/01 11:08:19;;;;;;;1999.90;999.90;;;;;;;10.00;26.82;100108.03;15444443;28;20385;-60
2022/04/01 11:16:13;;;;;;;1999.90;999.90;;;;;;;10.87;25.63;100116.22;15443489;28;20070;-59
2022/04/01 11:24:02;;;;;;;1999.90;999.90;;;;;;;10.98;25.78;100118.19;15468213;28;20415;-60
2022/04/01 11:31:42;;;;;;;1999.90;999.90;;;;;;;10.91;24.32;100109.59;15472905;28;20054;-61
2022/04/01 11:39:20;;;;;;;1999.90;999.90;;;;;;;11.08;23.92;100102.94;15463591;28;20043;-58
2022/04/01 11:46:58;;;;;;;1999.90;999.90;;;;;;;10.99;24.67;100114.25;15497659;28;20670;-60
2022/04/01 11:54:30;;;;;;;1999.90;999.90;;;;;;;11.50;23.88;100114.59;15439469;28;20121;-60
2022/04/01 12:02:10;;;;;;;1999.90;999.90;;;;;;;11.30;24.81;100107.22;15423154;28;20050;-61
2022/04/01 12:09:42;;;;;;;1999.90;999.90;;;;;;;11.65;24.36;100098.25;15474108;28;20082;-60
2022/04/01 12:17:16;;;;;;;1999.90;999.90;;;;;;;12.12;22.66;100104.00;15500889;28;20081;-61
2022/04/01 12:24:51;;;;;;;1999.90;999.90;;;;;;;11.84;23.89;100092.84;15500738;28;20042;-61
2022/04/01 12:32:24;;;;;;;1999.90;999.90;;;;;;;13.49;22.18;100076.94;15483066;28;20046;-62
2022/04/01 12:39:58;;;;;;;1999.90;999.90;;;;;;;11.55;23.40;100092.00;15500070;28;20034;-60
2022/04/01 12:47:32;;;;;;;1999.90;999.90;;;;;;;12.97;21.11;100066.97;15497279;28;20053;-61
2022/04/01 12:55:06;;;;;;;1999.90;999.90;;;;;;;12.42;22.38;100090.41;15497849;28;20046;-60
2022/04/01 13:03:02;;;;;;;1999.90;999.90;;;;;;;12.26;21.86;100090.41;15497375;28;20039;-61
2022/04/01 13:10:34;;;;;;;1999.90;999.90;;;;;;;11.52;22.09;100103.06;15499763;28;20046;-61
2022/04/01 13:18:21;;;;;;;1999.90;999.90;;;;;;;11.92;22.70;100097.47;15497244;28;20046;-60
2022/04/01 13:25:54;;;;;;;1999.90;999.90;;;;;;;12.62;22.63;100094.13;15478555;28;20122;-59
2022/04/01 13:33:27;;;;;;;1999.90;999.90;;;;;;;11.58;22.38;100101.66;15488158;28;20057;-59
2022/04/01 13:40:59;;;;;;;1999.90;999.90;;;;;;;11.53;23.18;100090.72;15440842;28;20049;-60
2022/04/01 13:48:33;;;;;;;1999.90;999.90;;;;;;;11.10;24.54;100080.25;15462256;28;20047;-60
2022/04/01 13:56:05;;;;;;;1999.90;999.90;;;;;;;10.72;25.13;100087.03;15442890;28;20133;-60
2022/04/01 14:03:39;;;;;;;1999.90;999.90;;;;;;;10.53;24.73;100068.09;15494126;28;20133;-60
2022/04/01 14:11:11;;;;;;;1999.90;999.90;;;;;;;10.68;24.37;100064.59;15466604;28;20046;-58
2022/04/01 14:18:45;;;;;;;1999.90;999.90;;;;;;;10.30;24.50;100073.28;15434205;28;20416;-60
2022/04/01 14:26:19;;;;;;;1999.90;999.90;;;;;;;10.39;24.41;100068.41;15433729;28;20137;-58
2022/04/01 14:33:57;;;;;;;1999.90;999.90;;;;;;;10.26;25.52;100063.19;15433582;28;20134;-60
2022/04/01 14:41:29;;;;;;;1999.90;999.90;;;;;;;10.06;25.02;100076.81;15421732;28;20049;-60
2022/04/01 14:49:03;;;;;;;1999.90;999.90;;;;;;;9.94;25.43;100071.22;15455109;28;20134;-61
2022/04/01 14:56:37;;;;;;;1999.90;999.90;;;;;;;9.72;25.60;100088.34;15493746;28;20399;-61
2022/04/01 15:04:10;;;;;;;1999.90;999.90;;;;;;;9.65;25.72;100085.28;15495401;28;20046;-60
2022/04/01 15:11:42;;;;;;;1999.90;999.90;;;;;;;9.54;26.68;100093.25;15477469;28;20050;-59
2022/04/01 15:19:16;;;;;;;1999.90;999.90;;;;;;;9.37;25.96;100082.25;15481063;28;20120;-60
2022/04/01 15:26:48;;;;;;;1999.90;999.90;;;;;;;9.52;26.57;100085.25;15488721;28;20271;-59
2022/04/01 15:34:22;;;;;;;1999.90;999.90;;;;;;;10.01;26.42;100084.63;15504714;28;20050;-60
2022/04/01 15:41:55;;;;;;;1999.90;999.90;;;;;;;9.90;26.75;100080.59;15504131;28;20057;-60
2022/04/01 15:49:30;;;;;;;1999.90;999.90;;;;;;;9.35;26.70;100079.81;15442840;28;20456;-60
2022/04/01 15:57:02;;;;;;;1999.90;999.90;;;;;;;9.68;27.09;100092.94;15425903;28;20310;-61
2022/04/01 16:04:40;;;;;;;1999.90;999.90;;;;;;;9.13;27.55;100102.41;15442989;28;20492;-62
2022/04/01 16:12:17;;;;;;;1999.90;999.90;;;;;;;9.16;28.02;100110.91;15409531;28;20508;-61
2022/04/01 16:19:53;;;;;;;1999.90;999.90;;;;;;;9.16;28.18;100119.25;15425511;28;20042;-61
2022/04/01 16:27:26;;;;;;;1999.90;999.90;;;;;;;9.18;28.71;100142.03;15502337;28;20042;-60
2022/04/01 16:34:59;;;;;;;1999.90;999.90;;;;;;;9.18;29.80;100138.41;15467041;28;20042;-58
2022/04/01 16:42:31;;;;;;;1999.90;999.90;;;;;;;8.92;34.25;100147.72;15482932;28;20058;-61
2022/04/01 16:50:31;;;;;;;1999.90;999.90;;;;;;;8.18;37.32;100164.84;15476733;28;20134;-62
2022/04/01 16:58:08;;;;;;;1999.90;999.90;;;;;;;8.37;37.74;100181.97;15479172;28;20496;-62
2022/04/01 17:13:39;;;;;;;1999.90;999.90;;;;;;;7.49;39.65;100196.22;15463439;28;20042;-64
2022/04/01 17:21:16;;;;;;;1999.90;999.90;;;;;;;7.23;40.13;100200.94;15448446;28;20050;-64
2022/04/01 17:28:48;;;;;;;1999.90;999.90;;;;;;;7.65;39.35;100229.09;15465289;28;20121;-63
2022/04/01 17:36:24;;;;;;;1999.90;999.90;;;;;;;7.29;40.94;100232.09;15463404;28;20042;-62
2022/04/01 17:43:58;;;;;;;1999.90;999.90;;;;;;;7.17;40.42;100232.72;15473393;28;20042;-60
2022/04/01 17:51:34;;;;;;;1999.90;999.90;;;;;;;6.81;41.46;100244.03;15466341;28;20074;-62
2022/04/01 17:59:09;;;;;;;1999.90;999.90;;;;;;;6.77;41.91;100243.00;15446389;28;20431;-63
2022/04/01 18:06:49;;;;;;;1999.90;999.90;;;;;;;6.22;43.78;100260.78;15435390;28;20105;-62
2022/04/01 18:14:21;;;;;;;1999.90;999.90;;;;;;;6.48;44.02;100285.13;15462369;28;20062;-62
2022/04/01 18:21:55;;;;;;;1999.90;999.90;;;;;;;6.33;44.14;100302.94;15475178;28;20042;-61
2022/04/01 18:29:34;;;;;;;1999.90;999.90;;;;;;;6.45;43.96;100294.84;15462453;28;20065;-61
2022/04/01 18:37:10;;;;;;;1999.90;999.90;;;;;;;6.31;44.09;100317.09;15457257;28;20051;-62
2022/04/01 18:44:43;;;;;;;1999.90;999.90;;;;;;;6.00;43.83;100333.63;15454248;28;20442;-60
2022/04/01 18:52:17;;;;;;;1999.90;999.90;;;;;;;5.78;43.47;100339.91;15450799;28;20046;-64
2022/04/01 18:59:52;;;;;;;1999.90;999.90;;;;;;;5.81;42.87;100357.81;15480522;28;20043;-61
2022/04/01 19:07:39;;;;;;;1999.90;999.90;;;;;;;5.65;43.97;100359.31;15489539;28;20047;-59
2022/04/01 19:15:13;;;;;;;1999.90;999.90;;;;;;;5.52;43.79;100374.75;15473495;28;20149;-59
2022/04/01 19:22:48;;;;;;;1999.90;999.90;;;;;;;5.44;43.97;100392.91;15480035;28;20096;-59
2022/04/01 19:30:22;;;;;;;1999.90;999.90;;;;;;;5.35;44.00;100399.47;15496887;28;20042;-63
2022/04/01 19:37:57;;;;;;;1999.90;999.90;;;;;;;5.28;44.27;100407.34;15486146;28;20034;-58
2022/04/01 19:45:32;;;;;;;1999.90;999.90;;;;;;;4.89;44.75;100419.63;15445122;28;20043;-59
2022/04/01 19:53:06;;;;;;;1999.90;999.90;;;;;;;5.14;44.55;100430.28;15449467;28;20125;-55
2022/04/01 20:00:40;;;;;;;1999.90;999.90;;;;;;;5.06;44.93;100438.44;15492669;28;20480;-59
2022/04/01 20:08:14;;;;;;;1999.90;999.90;;;;;;;4.84;44.95;100445.44;15483729;28;20074;-61
2022/04/01 20:15:46;;;;;;;;;;;;;;;4.84;45.57;100450.97;15422871;28;20051;-59
2022/04/01 20:23:19;;;;;;;1999.90;999.90;;;;;;;4.69;45.63;100459.50;15467126;28;20294;-62
2022/04/01 20:30:53;;;;;;;;;;;;;;;4.54;45.80;100463.31;15483038;28;20069;-59
2022/04/01 20:38:26;;;;;;;1999.90;999.90;;;;;;;4.58;45.95;100464.34;15474580;28;19922;-61
2022/04/01 20:45:59;;;;;;;1999.90;999.90;;;;;;;4.46;46.03;100466.75;15496076;28;20054;-58
2022/04/01 20:53:32;;;;;;;1999.90;999.90;;;;;;;3.98;46.30;100461.31;15490409;28;20078;-59
2022/04/01 21:01:05;;;;;;;1999.90;999.90;;;;;;;4.17;45.98;100463.28;15470758;28;20467;-60
2022/04/01 21:08:40;;;;;;;1999.90;999.90;;;;;;;4.32;46.36;100479.66;15495543;28;20050;-60
2022/04/01 21:16:12;;;;;;;1999.90;999.90;;;;;;;4.01;47.03;100485.56;15416310;28;20039;-59
2022/04/01 21:23:50;;;;;;;1999.90;999.90;;;;;;;3.86;47.14;100487.72;15436185;28;20049;-60
2022/04/01 21:31:23;;;;;;;1999.90;999.90;;;;;;;3.67;47.81;100490.41;15447120;28;20043;-59
2022/04/01 21:38:56;;;;;;;1999.90;999.90;;;;;;;3.78;47.77;100497.44;15469344;28;20724;-59
2022/04/01 21:46:29;;;;;;;1999.90;999.90;;;;;;;3.77;47.75;100506.84;15438960;28;20058;-59
2022/04/01 21:54:02;;;;;;;1999.90;999.90;;;;;;;3.54;48.06;100508.44;15487905;22;20072;-61
2022/04/01 22:01:46;;;;;;;1999.90;999.90;;;;;;;3.83;47.85;100499.31;15461992;28;20043;-60
2022/04/01 22:09:20;;;;;;;1999.90;999.90;;;;;;;3.66;48.08;100508.91;15363938;29;20488;-61
2022/04/01 22:16:54;;;;;;;1999.90;999.90;;;;;;;3.48;48.49;100510.44;15366537;29;20047;-61
2022/04/01 22:24:28;;;;;;;1999.90;999.90;;;;;;;3.39;48.57;100519.63;15372959;28;20043;-62
2022/04/01 22:32:00;;;;;;;1999.90;999.90;;;;;;;3.05;48.82;100514.16;15375198;28;20531;-60
2022/04/01 22:39:33;;;;;;;1999.90;999.90;;;;;;;3.39;48.49;100520.47;15378883;28;20445;-61
2022/04/01 22:47:08;;;;;;;1999.90;999.90;;;;;;;3.07;49.04;100520.19;15392839;28;20745;-60
2022/04/01 22:54:41;;;;;;;1999.90;999.90;;;;;;;3.31;48.75;100529.34;15419603;28;20038;-60
2022/04/01 23:02:14;;;;;;;1999.90;999.90;;;;;;;3.45;47.91;100549.66;15419703;28;20437;-60
2022/04/01 23:09:49;;;;;;;1999.90;999.90;;;;;;;3.14;48.40;100548.25;15436839;28;20409;-61
2022/04/01 23:17:21;;;;;;;1999.90;999.90;;;;;;;3.33;47.95;100560.22;15436051;28;20523;-60
2022/04/01 23:24:55;;;;;;;1999.90;999.90;;;;;;;3.21;48.54;100562.53;15417832;28;20088;-61
2022/04/01 23:32:28;;;;;;;1999.90;999.90;;;;;;;2.98;48.40;100575.09;15434964;28;20106;-61
2022/04/01 23:40:05;;;;;;;1999.90;999.90;;;;;;;2.72;49.25;100570.88;15448689;28;20106;-60
2022/04/01 23:47:39;;;;;;;1999.90;999.90;;;;;;;2.77;49.28;100574.41;15434842;28;20046;-59
2022/04/01 23:55:13;;;;;;;1999.90;999.90;;;;;;;2.68;49.37;100569.78;15433386;28;20079;-61
